sensor_id;sensor_type;location;lat;lon;timestamp;P1;durP1;ratioP1;P2;durP2;ratioP2
10295;SDS011;5193;51.032;6.356;2023-04-01T00:02:06;2.67;;;0.80;;
10295;SDS011;5193;51.032;6.356;2023-04-01T00:04:32;2.03;;;0.67;;
10295;SDS011;5193;51.032;6.356;2023-04-01T00:06:57;2.13;;;0.60;;
10295;SDS011;5193;51.032;6.356;2023-04-01T00:09:24;1.43;;;0.40;;
10295;SDS011;5193;51.032;6.356;2023-04-01T00:11:49;2.77;;;0.50;;
10295;SDS011;5193;51.032;6.356;2023-04-01T00:14:15;1.13;;;0.47;;
10295;SDS011;5193;51.032;6.356;2023-04-01T00:16:41;1.80;;;0.60;;
10295;SDS011;5193;51.032;6.356;2023-04-01T00:19:06;1.67;;;0.40;;
10295;SDS011;5193;51.032;6.356;2023-04-01T00:21:32;0.30;;;0.30;;
10295;SDS011;5193;51.032;6.356;2023-04-01T00:23:58;1.80;;;0.60;;
10295;SDS011;5193;51.032;6.356;2023-04-01T00:26:24;2.73;;;0.60;;
10295;SDS011;5193;51.032;6.356;2023-04-01T00:28:50;1.40;;;0.33;;
10295;SDS011;5193;51.032;6.356;2023-04-01T00:31:16;1.10;;;0.40;;
10295;SDS011;5193;51.032;6.356;2023-04-01T00:33:42;1.90;;;0.47;;
10295;SDS011;5193;51.032;6.356;2023-04-01T00:36:12;1.70;;;0.40;;
10295;SDS011;5193;51.032;6.356;2023-04-01T00:38:39;1.17;;;0.40;;
10295;SDS011;5193;51.032;6.356;2023-04-01T00:41:06;1.33;;;0.60;;
10295;SDS011;5193;51.032;6.356;2023-04-01T00:43:32;1.57;;;0.40;;
10295;SDS011;5193;51.032;6.356;2023-04-01T00:45:58;1.80;;;0.40;;
10295;SDS011;5193;51.032;6.356;2023-04-01T00:48:24;0.77;;;0.40;;
10295;SDS011;5193;51.032;6.356;2023-04-01T00:51:16;3.40;;;0.43;;
10295;SDS011;5193;51.032;6.356;2023-04-01T00:53:45;4.00;;;0.50;;
10295;SDS011;5193;51.032;6.356;2023-04-01T00:56:14;1.67;;;0.60;;
10295;SDS011;5193;51.032;6.356;2023-04-01T00:58:44;0.87;;;0.30;;
10295;SDS011;5193;51.032;6.356;2023-04-01T01:01:13;1.90;;;0.77;;
10295;SDS011;5193;51.032;6.356;2023-04-01T01:03:39;2.33;;;0.70;;
10295;SDS011;5193;51.032;6.356;2023-04-01T01:11:41;0.20;;;0.20;;
10295;SDS011;5193;51.032;6.356;2023-04-01T01:16:53;0.93;;;0.40;;
10295;SDS011;5193;51.032;6.356;2023-04-01T01:25:32;5.33;;;0.70;;
10295;SDS011;5193;51.032;6.356;2023-04-01T01:28:26;0.83;;;0.40;;
10295;SDS011;5193;51.032;6.356;2023-04-01T01:31:09;2.67;;;0.70;;
10295;SDS011;5193;51.032;6.356;2023-04-01T01:36:58;1.83;;;0.60;;
10295;SDS011;5193;51.032;6.356;2023-04-01T01:39:33;3.30;;;0.80;;
10295;SDS011;5193;51.032;6.356;2023-04-01T01:42:01;4.13;;;0.90;;
10295;SDS011;5193;51.032;6.356;2023-04-01T01:44:30;2.13;;;0.77;;
10295;SDS011;5193;51.032;6.356;2023-04-01T01:46:58;4.30;;;0.70;;
10295;SDS011;5193;51.032;6.356;2023-04-01T01:49:25;1.87;;;0.60;;
10295;SDS011;5193;51.032;6.356;2023-04-01T01:51:52;1.70;;;0.57;;
10295;SDS011;5193;51.032;6.356;2023-04-01T01:54:18;1.53;;;0.43;;
10295;SDS011;5193;51.032;6.356;2023-04-01T01:56:44;1.30;;;0.57;;
10295;SDS011;5193;51.032;6.356;2023-04-01T01:59:13;0.90;;;0.27;;
10295;SDS011;5193;51.032;6.356;2023-04-01T02:01:43;1.07;;;0.60;;
10295;SDS011;5193;51.032;6.356;2023-04-01T02:04:18;0.47;;;0.47;;
10295;SDS011;5193;51.032;6.356;2023-04-01T02:06:53;0.77;;;0.40;;
10295;SDS011;5193;51.032;6.356;2023-04-01T02:09:25;0.30;;;0.20;;
10295;SDS011;5193;51.032;6.356;2023-04-01T02:11:56;1.50;;;0.33;;
10295;SDS011;5193;51.032;6.356;2023-04-01T02:14:25;1.23;;;0.30;;
10295;SDS011;5193;51.032;6.356;2023-04-01T02:17:02;0.37;;;0.37;;
10295;SDS011;5193;51.032;6.356;2023-04-01T02:19:39;1.07;;;0.40;;
10295;SDS011;5193;51.032;6.356;2023-04-01T02:22:13;2.73;;;1.17;;
10295;SDS011;5193;51.032;6.356;2023-04-01T02:24:42;5.97;;;2.00;;
10295;SDS011;5193;51.032;6.356;2023-04-01T02:27:10;1.23;;;0.60;;
10295;SDS011;5193;51.032;6.356;2023-04-01T02:29:36;1.13;;;0.70;;
10295;SDS011;5193;51.032;6.356;2023-04-01T02:32:02;1.60;;;0.40;;
10295;SDS011;5193;51.032;6.356;2023-04-01T02:34:28;0.20;;;0.20;;
10295;SDS011;5193;51.032;6.356;2023-04-01T02:36:54;1.20;;;0.30;;
10295;SDS011;5193;51.032;6.356;2023-04-01T02:39:21;0.63;;;0.40;;
10295;SDS011;5193;51.032;6.356;2023-04-01T02:41:47;1.10;;;0.50;;
10295;SDS011;5193;51.032;6.356;2023-04-01T02:44:14;0.20;;;0.20;;
10295;SDS011;5193;51.032;6.356;2023-04-01T02:46:40;0.30;;;0.30;;
10295;SDS011;5193;51.032;6.356;2023-04-01T02:49:06;0.53;;;0.30;;
10295;SDS011;5193;51.032;6.356;2023-04-01T02:51:32;0.83;;;0.30;;
10295;SDS011;5193;51.032;6.356;2023-04-01T02:53:58;1.37;;;0.40;;
10295;SDS011;5193;51.032;6.356;2023-04-01T02:56:24;0.83;;;0.20;;
10295;SDS011;5193;51.032;6.356;2023-04-01T02:58:51;1.03;;;0.30;;
10295;SDS011;5193;51.032;6.356;2023-04-01T03:01:16;0.63;;;0.47;;
10295;SDS011;5193;51.032;6.356;2023-04-01T03:03:42;1.40;;;0.30;;
10295;SDS011;5193;51.032;6.356;2023-04-01T03:06:08;0.73;;;0.30;;
10295;SDS011;5193;51.032;6.356;2023-04-01T03:08:36;0.40;;;0.40;;
10295;SDS011;5193;51.032;6.356;2023-04-01T03:11:01;0.30;;;0.30;;
10295;SDS011;5193;51.032;6.356;2023-04-01T03:15:55;0.83;;;0.40;;
10295;SDS011;5193;51.032;6.356;2023-04-01T03:18:20;1.37;;;0.60;;
10295;SDS011;5193;51.032;6.356;2023-04-01T03:20:46;0.33;;;0.33;;
10295;SDS011;5193;51.032;6.356;2023-04-01T03:23:12;1.90;;;0.43;;
10295;SDS011;5193;51.032;6.356;2023-04-01T03:25:37;0.87;;;0.30;;
10295;SDS011;5193;51.032;6.356;2023-04-01T03:28:03;0.27;;;0.23;;
10295;SDS011;5193;51.032;6.356;2023-04-01T03:30:29;2.93;;;0.40;;
10295;SDS011;5193;51.032;6.356;2023-04-01T03:32:56;0.30;;;0.20;;
10295;SDS011;5193;51.032;6.356;2023-04-01T03:35:25;0.37;;;0.30;;
10295;SDS011;5193;51.032;6.356;2023-04-01T03:37:51;1.83;;;0.50;;
10295;SDS011;5193;51.032;6.356;2023-04-01T03:40:18;0.60;;;0.33;;
10295;SDS011;5193;51.032;6.356;2023-04-01T03:42:43;0.27;;;0.27;;
10295;SDS011;5193;51.032;6.356;2023-04-01T03:45:09;0.50;;;0.30;;
10295;SDS011;5193;51.032;6.356;2023-04-01T03:47:36;0.23;;;0.20;;
10295;SDS011;5193;51.032;6.356;2023-04-01T03:50:03;0.70;;;0.40;;
10295;SDS011;5193;51.032;6.356;2023-04-01T03:52:29;1.67;;;0.50;;
10295;SDS011;5193;51.032;6.356;2023-04-01T03:54:55;1.30;;;0.30;;
10295;SDS011;5193;51.032;6.356;2023-04-01T03:57:21;0.40;;;0.30;;
10295;SDS011;5193;51.032;6.356;2023-04-01T03:59:46;0.93;;;0.53;;
10295;SDS011;5193;51.032;6.356;2023-04-01T04:02:12;0.50;;;0.40;;
10295;SDS011;5193;51.032;6.356;2023-04-01T04:04:37;0.57;;;0.40;;
10295;SDS011;5193;51.032;6.356;2023-04-01T04:07:03;1.20;;;0.63;;
10295;SDS011;5193;51.032;6.356;2023-04-01T04:09:44;0.83;;;0.50;;
10295;SDS011;5193;51.032;6.356;2023-04-01T04:12:09;0.40;;;0.40;;
10295;SDS011;5193;51.032;6.356;2023-04-01T04:14:35;0.90;;;0.57;;
10295;SDS011;5193;51.032;6.356;2023-04-01T04:17:00;1.07;;;0.60;;
10295;SDS011;5193;51.032;6.356;2023-04-01T04:19:26;0.87;;;0.50;;
10295;SDS011;5193;51.032;6.356;2023-04-01T04:21:56;2.03;;;1.27;;
10295;SDS011;5193;51.032;6.356;2023-04-01T04:24:21;2.60;;;0.80;;
10295;SDS011;5193;51.032;6.356;2023-04-01T04:26:47;0.90;;;0.67;;
10295;SDS011;5193;51.032;6.356;2023-04-01T04:29:12;0.50;;;0.50;;
10295;SDS011;5193;51.032;6.356;2023-04-01T04:31:38;0.90;;;0.67;;
10295;SDS011;5193;51.032;6.356;2023-04-01T04:34:03;0.80;;;0.70;;
10295;SDS011;5193;51.032;6.356;2023-04-01T04:36:29;0.70;;;0.60;;
10295;SDS011;5193;51.032;6.356;2023-04-01T04:38:54;1.40;;;0.63;;
10295;SDS011;5193;51.032;6.356;2023-04-01T04:41:20;1.27;;;0.50;;
10295;SDS011;5193;51.032;6.356;2023-04-01T04:43:50;1.03;;;0.60;;
10295;SDS011;5193;51.032;6.356;2023-04-01T04:46:18;0.97;;;0.50;;
10295;SDS011;5193;51.032;6.356;2023-04-01T04:48:44;0.50;;;0.50;;
10295;SDS011;5193;51.032;6.356;2023-04-01T04:51:17;0.50;;;0.50;;
10295;SDS011;5193;51.032;6.356;2023-04-01T04:53:44;0.40;;;0.40;;
10295;SDS011;5193;51.032;6.356;2023-04-01T04:56:10;0.57;;;0.47;;
10295;SDS011;5193;51.032;6.356;2023-04-01T04:58:36;0.63;;;0.50;;
10295;SDS011;5193;51.032;6.356;2023-04-01T05:01:09;1.70;;;0.50;;
10295;SDS011;5193;51.032;6.356;2023-04-01T05:03:37;0.30;;;0.30;;
10295;SDS011;5193;51.032;6.356;2023-04-01T05:06:03;2.37;;;0.43;;
10295;SDS011;5193;51.032;6.356;2023-04-01T05:08:30;0.50;;;0.30;;
10295;SDS011;5193;51.032;6.356;2023-04-01T05:10:57;0.47;;;0.40;;
10295;SDS011;5193;51.032;6.356;2023-04-01T05:13:23;0.70;;;0.70;;
10295;SDS011;5193;51.032;6.356;2023-04-01T05:15:49;1.13;;;0.70;;
10295;SDS011;5193;51.032;6.356;2023-04-01T05:18:14;0.50;;;0.30;;
10295;SDS011;5193;51.032;6.356;2023-04-01T05:20:45;0.93;;;0.40;;
10295;SDS011;5193;51.032;6.356;2023-04-01T05:23:18;0.70;;;0.60;;
10295;SDS011;5193;51.032;6.356;2023-04-01T05:25:46;0.93;;;0.70;;
10295;SDS011;5193;51.032;6.356;2023-04-01T05:28:13;0.63;;;0.40;;
10295;SDS011;5193;51.032;6.356;2023-04-01T05:30:41;0.30;;;0.30;;
10295;SDS011;5193;51.032;6.356;2023-04-01T05:33:09;0.50;;;0.50;;
10295;SDS011;5193;51.032;6.356;2023-04-01T05:35:35;0.50;;;0.50;;
10295;SDS011;5193;51.032;6.356;2023-04-01T05:38:01;1.77;;;0.43;;
10295;SDS011;5193;51.032;6.356;2023-04-01T05:40:27;0.70;;;0.60;;
10295;SDS011;5193;51.032;6.356;2023-04-01T05:42:53;1.03;;;0.50;;
10295;SDS011;5193;51.032;6.356;2023-04-01T05:45:19;0.53;;;0.40;;
10295;SDS011;5193;51.032;6.356;2023-04-01T05:47:44;0.60;;;0.60;;
10295;SDS011;5193;51.032;6.356;2023-04-01T05:50:10;0.50;;;0.50;;
10295;SDS011;5193;51.032;6.356;2023-04-01T05:52:36;0.63;;;0.50;;
10295;SDS011;5193;51.032;6.356;2023-04-01T05:55:02;2.30;;;0.83;;
10295;SDS011;5193;51.032;6.356;2023-04-01T05:57:29;0.47;;;0.47;;
10295;SDS011;5193;51.032;6.356;2023-04-01T05:59:55;0.60;;;0.37;;
10295;SDS011;5193;51.032;6.356;2023-04-01T06:02:20;1.00;;;0.70;;
10295;SDS011;5193;51.032;6.356;2023-04-01T06:04:46;0.60;;;0.60;;
10295;SDS011;5193;51.032;6.356;2023-04-01T06:07:16;2.40;;;0.70;;
10295;SDS011;5193;51.032;6.356;2023-04-01T06:09:43;0.80;;;0.63;;
10295;SDS011;5193;51.032;6.356;2023-04-01T06:12:16;0.57;;;0.57;;
10295;SDS011;5193;51.032;6.356;2023-04-01T06:15:25;1.23;;;0.83;;
10295;SDS011;5193;51.032;6.356;2023-04-01T06:26:37;1.27;;;0.83;;
10295;SDS011;5193;51.032;6.356;2023-04-01T06:29:23;1.43;;;0.80;;
10295;SDS011;5193;51.032;6.356;2023-04-01T06:32:13;4.03;;;0.97;;
10295;SDS011;5193;51.032;6.356;2023-04-01T06:35:06;1.20;;;1.10;;
10295;SDS011;5193;51.032;6.356;2023-04-01T06:37:49;1.07;;;0.90;;
10295;SDS011;5193;51.032;6.356;2023-04-01T06:43:12;3.37;;;1.23;;
10295;SDS011;5193;51.032;6.356;2023-04-01T06:45:48;1.50;;;1.13;;
10295;SDS011;5193;51.032;6.356;2023-04-01T06:48:40;3.07;;;1.47;;
10295;SDS011;5193;51.032;6.356;2023-04-01T06:51:36;1.83;;;1.17;;
10295;SDS011;5193;51.032;6.356;2023-04-01T06:55:07;2.13;;;1.20;;
10295;SDS011;5193;51.032;6.356;2023-04-01T06:57:16;1.33;;;1.00;;
10295;SDS011;5193;51.032;6.356;2023-04-01T06:59:48;2.83;;;1.30;;
10295;SDS011;5193;51.032;6.356;2023-04-01T07:02:18;1.67;;;0.97;;
10295;SDS011;5193;51.032;6.356;2023-04-01T07:04:56;1.23;;;1.10;;
10295;SDS011;5193;51.032;6.356;2023-04-01T07:07:26;2.67;;;1.60;;
10295;SDS011;5193;51.032;6.356;2023-04-01T07:09:57;2.53;;;1.20;;
10295;SDS011;5193;51.032;6.356;2023-04-01T07:14:58;1.67;;;1.00;;
10295;SDS011;5193;51.032;6.356;2023-04-01T07:17:30;1.53;;;1.17;;
10295;SDS011;5193;51.032;6.356;2023-04-01T07:22:59;0.67;;;0.63;;
10295;SDS011;5193;51.032;6.356;2023-04-01T07:25:29;1.43;;;1.03;;
10295;SDS011;5193;51.032;6.356;2023-04-01T07:28:02;1.10;;;0.90;;
10295;SDS011;5193;51.032;6.356;2023-04-01T07:30:32;2.13;;;1.30;;
10295;SDS011;5193;51.032;6.356;2023-04-01T07:35:56;1.43;;;0.70;;
10295;SDS011;5193;51.032;6.356;2023-04-01T07:38:44;1.70;;;0.90;;
10295;SDS011;5193;51.032;6.356;2023-04-01T07:42:15;2.00;;;0.70;;
10295;SDS011;5193;51.032;6.356;2023-04-01T07:47:21;2.40;;;0.80;;
10295;SDS011;5193;51.032;6.356;2023-04-01T07:50:11;0.60;;;0.60;;
10295;SDS011;5193;51.032;6.356;2023-04-01T07:53:00;1.10;;;0.83;;
10295;SDS011;5193;51.032;6.356;2023-04-01T07:55:30;0.93;;;0.73;;
10295;SDS011;5193;51.032;6.356;2023-04-01T08:06:34;1.53;;;0.60;;
10295;SDS011;5193;51.032;6.356;2023-04-01T08:09:15;0.70;;;0.67;;
10295;SDS011;5193;51.032;6.356;2023-04-01T08:12:04;0.50;;;0.50;;
10295;SDS011;5193;51.032;6.356;2023-04-01T08:14:40;0.50;;;0.50;;
10295;SDS011;5193;51.032;6.356;2023-04-01T08:20:18;0.73;;;0.60;;
10295;SDS011;5193;51.032;6.356;2023-04-01T08:23:14;0.70;;;0.50;;
10295;SDS011;5193;51.032;6.356;2023-04-01T08:25:44;1.00;;;0.90;;
10295;SDS011;5193;51.032;6.356;2023-04-01T08:28:20;3.03;;;0.80;;
10295;SDS011;5193;51.032;6.356;2023-04-01T08:31:04;0.93;;;0.83;;
10295;SDS011;5193;51.032;6.356;2023-04-01T08:33:37;0.63;;;0.60;;
10295;SDS011;5193;51.032;6.356;2023-04-01T08:36:05;0.77;;;0.77;;
10295;SDS011;5193;51.032;6.356;2023-04-01T08:38:54;1.30;;;0.60;;
10295;SDS011;5193;51.032;6.356;2023-04-01T08:41:33;0.70;;;0.70;;
10295;SDS011;5193;51.032;6.356;2023-04-01T08:50:06;1.47;;;0.70;;
10295;SDS011;5193;51.032;6.356;2023-04-01T08:53:03;0.77;;;0.77;;
10295;SDS011;5193;51.032;6.356;2023-04-01T08:55:34;0.80;;;0.80;;
10295;SDS011;5193;51.032;6.356;2023-04-01T08:58:31;1.20;;;1.10;;
10295;SDS011;5193;51.032;6.356;2023-04-01T09:03:59;0.90;;;0.90;;
10295;SDS011;5193;51.032;6.356;2023-04-01T09:12:25;1.10;;;0.87;;
10295;SDS011;5193;51.032;6.356;2023-04-01T09:15:05;1.00;;;0.90;;
10295;SDS011;5193;51.032;6.356;2023-04-01T09:20:39;2.27;;;1.20;;
10295;SDS011;5193;51.032;6.356;2023-04-01T09:34:57;1.23;;;1.13;;
10295;SDS011;5193;51.032;6.356;2023-04-01T09:45:42;1.60;;;1.23;;
10295;SDS011;5193;51.032;6.356;2023-04-01T09:51:45;1.80;;;1.30;;
10295;SDS011;5193;51.032;6.356;2023-04-01T10:00:06;1.50;;;1.40;;
10295;SDS011;5193;51.032;6.356;2023-04-01T10:02:54;2.57;;;1.53;;
10295;SDS011;5193;51.032;6.356;2023-04-01T10:05:55;1.10;;;1.03;;
10295;SDS011;5193;51.032;6.356;2023-04-01T10:09:07;2.17;;;1.97;;
10295;SDS011;5193;51.032;6.356;2023-04-01T10:20:26;2.47;;;2.20;;
10295;SDS011;5193;51.032;6.356;2023-04-01T10:34:03;2.93;;;2.40;;
10295;SDS011;5193;51.032;6.356;2023-04-01T10:48:07;2.27;;;2.00;;
10295;SDS011;5193;51.032;6.356;2023-04-01T10:56:05;2.60;;;2.40;;
10295;SDS011;5193;51.032;6.356;2023-04-01T11:24:39;2.13;;;1.97;;
10295;SDS011;5193;51.032;6.356;2023-04-01T11:33:34;3.67;;;2.47;;
10295;SDS011;5193;51.032;6.356;2023-04-01T11:39:32;2.40;;;2.20;;
10295;SDS011;5193;51.032;6.356;2023-04-01T11:42:20;2.30;;;2.10;;
10295;SDS011;5193;51.032;6.356;2023-04-01T11:50:24;2.13;;;1.93;;
10295;SDS011;5193;51.032;6.356;2023-04-01T12:18:22;2.57;;;2.33;;
10295;SDS011;5193;51.032;6.356;2023-04-01T12:26:54;2.40;;;2.10;;
10295;SDS011;5193;51.032;6.356;2023-04-01T12:32:31;2.60;;;1.87;;
10295;SDS011;5193;51.032;6.356;2023-04-01T13:10:25;6.50;;;2.00;;
10295;SDS011;5193;51.032;6.356;2023-04-01T13:26:36;1.70;;;1.60;;
10295;SDS011;5193;51.032;6.356;2023-04-01T13:29:23;1.77;;;1.67;;
10295;SDS011;5193;51.032;6.356;2023-04-01T13:34:47;1.60;;;1.50;;
10295;SDS011;5193;51.032;6.356;2023-04-01T13:40:30;1.70;;;1.60;;
10295;SDS011;5193;51.032;6.356;2023-04-01T13:48:34;2.20;;;2.00;;
10295;SDS011;5193;51.032;6.356;2023-04-01T13:59:35;2.67;;;2.00;;
10295;SDS011;5193;51.032;6.356;2023-04-01T14:08:36;2.97;;;2.67;;
10295;SDS011;5193;51.032;6.356;2023-04-01T14:19:30;2.63;;;2.43;;
10295;SDS011;5193;51.032;6.356;2023-04-01T14:33:12;2.33;;;2.17;;
10295;SDS011;5193;51.032;6.356;2023-04-01T14:36:02;2.70;;;2.40;;
10295;SDS011;5193;51.032;6.356;2023-04-01T14:38:59;4.47;;;1.80;;
10295;SDS011;5193;51.032;6.356;2023-04-01T14:42:03;1.30;;;1.20;;
10295;SDS011;5193;51.032;6.356;2023-04-01T14:44:46;3.80;;;2.23;;
10295;SDS011;5193;51.032;6.356;2023-04-01T14:50:28;3.57;;;2.10;;
10295;SDS011;5193;51.032;6.356;2023-04-01T14:53:26;2.50;;;2.30;;
10295;SDS011;5193;51.032;6.356;2023-04-01T14:55:57;2.50;;;2.07;;
10295;SDS011;5193;51.032;6.356;2023-04-01T14:58:25;2.53;;;2.33;;
10295;SDS011;5193;51.032;6.356;2023-04-01T15:09:28;2.13;;;1.93;;
10295;SDS011;5193;51.032;6.356;2023-04-01T15:17:33;4.33;;;2.80;;
10295;SDS011;5193;51.032;6.356;2023-04-01T15:23:13;2.47;;;2.27;;
10295;SDS011;5193;51.032;6.356;2023-04-01T15:39:31;2.37;;;1.93;;
10295;SDS011;5193;51.032;6.356;2023-04-01T15:44:52;1.90;;;1.80;;
10295;SDS011;5193;51.032;6.356;2023-04-01T15:47:52;2.33;;;2.10;;
10295;SDS011;5193;51.032;6.356;2023-04-01T16:04:01;3.07;;;2.27;;
10295;SDS011;5193;51.032;6.356;2023-04-01T16:12:15;4.77;;;2.30;;
10295;SDS011;5193;51.032;6.356;2023-04-01T16:15:02;2.17;;;1.97;;
10295;SDS011;5193;51.032;6.356;2023-04-01T16:20:24;2.10;;;1.90;;
10295;SDS011;5193;51.032;6.356;2023-04-01T16:25:44;2.50;;;2.30;;
10295;SDS011;5193;51.032;6.356;2023-04-01T16:30:59;2.20;;;2.00;;
10295;SDS011;5193;51.032;6.356;2023-04-01T16:33:35;2.00;;;1.57;;
10295;SDS011;5193;51.032;6.356;2023-04-01T16:36:27;2.30;;;2.10;;
10295;SDS011;5193;51.032;6.356;2023-04-01T16:42:16;2.07;;;1.87;;
10295;SDS011;5193;51.032;6.356;2023-04-01T16:45:02;2.80;;;1.80;;
10295;SDS011;5193;51.032;6.356;2023-04-01T16:47:50;2.00;;;1.90;;
10295;SDS011;5193;51.032;6.356;2023-04-01T16:58:27;2.37;;;1.90;;
10295;SDS011;5193;51.032;6.356;2023-04-01T17:01:06;2.27;;;2.07;;
10295;SDS011;5193;51.032;6.356;2023-04-01T17:03:49;2.30;;;2.10;;
10295;SDS011;5193;51.032;6.356;2023-04-01T17:06:24;2.63;;;1.70;;
10295;SDS011;5193;51.032;6.356;2023-04-01T17:11:34;2.13;;;1.90;;
10295;SDS011;5193;51.032;6.356;2023-04-01T17:14:40;2.37;;;2.17;;
10295;SDS011;5193;51.032;6.356;2023-04-01T17:17:19;4.17;;;2.47;;
10295;SDS011;5193;51.032;6.356;2023-04-01T17:20:11;2.70;;;2.50;;
10295;SDS011;5193;51.032;6.356;2023-04-01T17:22:54;3.10;;;2.80;;
10295;SDS011;5193;51.032;6.356;2023-04-01T17:28:19;3.50;;;3.20;;
10295;SDS011;5193;51.032;6.356;2023-04-01T17:33:30;6.43;;;2.50;;
10295;SDS011;5193;51.032;6.356;2023-04-01T17:41:48;3.17;;;2.87;;
10295;SDS011;5193;51.032;6.356;2023-04-01T17:44:32;4.67;;;3.00;;
10295;SDS011;5193;51.032;6.356;2023-04-01T17:47:12;4.23;;;3.07;;
10295;SDS011;5193;51.032;6.356;2023-04-01T17:52:46;3.00;;;2.70;;
10295;SDS011;5193;51.032;6.356;2023-04-01T17:58:05;3.77;;;2.90;;
10295;SDS011;5193;51.032;6.356;2023-04-01T18:03:24;3.10;;;2.43;;
10295;SDS011;5193;51.032;6.356;2023-04-01T18:06:07;3.47;;;2.83;;
10295;SDS011;5193;51.032;6.356;2023-04-01T18:23:02;3.07;;;2.30;;
10295;SDS011;5193;51.032;6.356;2023-04-01T18:25:47;2.20;;;2.00;;
10295;SDS011;5193;51.032;6.356;2023-04-01T18:28:20;3.17;;;2.63;;
10295;SDS011;5193;51.032;6.356;2023-04-01T18:31:07;3.23;;;2.17;;
10295;SDS011;5193;51.032;6.356;2023-04-01T18:36:24;3.57;;;3.20;;
10295;SDS011;5193;51.032;6.356;2023-04-01T18:44:50;6.37;;;4.93;;
10295;SDS011;5193;51.032;6.356;2023-04-01T18:52:52;2.97;;;2.00;;
10295;SDS011;5193;51.032;6.356;2023-04-01T18:57:58;2.00;;;1.90;;
10295;SDS011;5193;51.032;6.356;2023-04-01T19:01:12;1.67;;;1.57;;
10295;SDS011;5193;51.032;6.356;2023-04-01T19:03:39;2.20;;;2.00;;
10295;SDS011;5193;51.032;6.356;2023-04-01T19:06:35;3.13;;;2.13;;
10295;SDS011;5193;51.032;6.356;2023-04-01T19:09:14;4.20;;;2.47;;
10295;SDS011;5193;51.032;6.356;2023-04-01T19:11:54;3.60;;;2.00;;
10295;SDS011;5193;51.032;6.356;2023-04-01T19:20:33;2.60;;;2.40;;
10295;SDS011;5193;51.032;6.356;2023-04-01T19:26:05;2.60;;;2.40;;
10295;SDS011;5193;51.032;6.356;2023-04-01T19:29:03;3.20;;;2.90;;
10295;SDS011;5193;51.032;6.356;2023-04-01T19:31:55;4.20;;;3.00;;
10295;SDS011;5193;51.032;6.356;2023-04-01T19:35:19;3.73;;;3.03;;
10295;SDS011;5193;51.032;6.356;2023-04-01T19:40:33;3.47;;;3.13;;
10295;SDS011;5193;51.032;6.356;2023-04-01T19:45:51;3.77;;;3.37;;
10295;SDS011;5193;51.032;6.356;2023-04-01T19:51:56;3.63;;;2.70;;
10295;SDS011;5193;51.032;6.356;2023-04-01T19:57:58;3.20;;;2.70;;
10295;SDS011;5193;51.032;6.356;2023-04-01T20:00:41;3.10;;;2.83;;
10295;SDS011;5193;51.032;6.356;2023-04-01T20:03:21;4.30;;;3.00;;
10295;SDS011;5193;51.032;6.356;2023-04-01T20:11:45;3.40;;;3.10;;
10295;SDS011;5193;51.032;6.356;2023-04-01T20:14:40;3.40;;;3.10;;
10295;SDS011;5193;51.032;6.356;2023-04-01T20:22:38;3.17;;;2.87;;
10295;SDS011;5193;51.032;6.356;2023-04-01T20:25:30;3.30;;;2.80;;
10295;SDS011;5193;51.032;6.356;2023-04-01T20:28:14;3.60;;;3.30;;
10295;SDS011;5193;51.032;6.356;2023-04-01T20:31:01;2.73;;;2.53;;
10295;SDS011;5193;51.032;6.356;2023-04-01T20:39:09;3.27;;;2.97;;
10295;SDS011;5193;51.032;6.356;2023-04-01T20:44:42;4.00;;;3.60;;
10295;SDS011;5193;51.032;6.356;2023-04-01T20:53:11;4.00;;;3.47;;
10295;SDS011;5193;51.032;6.356;2023-04-01T21:04:22;3.70;;;3.37;;
10295;SDS011;5193;51.032;6.356;2023-04-01T21:57:04;7.97;;;7.20;;
10295;SDS011;5193;51.032;6.356;2023-04-01T22:00:06;7.17;;;6.47;;
10295;SDS011;5193;51.032;6.356;2023-04-01T22:02:59;5.37;;;4.87;;
10295;SDS011;5193;51.032;6.356;2023-04-01T22:10:51;7.27;;;5.83;;
10295;SDS011;5193;51.032;6.356;2023-04-01T22:19:15;7.40;;;6.43;;
10295;SDS011;5193;51.032;6.356;2023-04-01T22:27:34;6.50;;;5.70;;
10295;SDS011;5193;51.032;6.356;2023-04-01T22:33:11;5.77;;;5.23;;
10295;SDS011;5193;51.032;6.356;2023-04-01T22:38:35;8.30;;;6.87;;
10295;SDS011;5193;51.032;6.356;2023-04-01T22:41:28;7.53;;;6.80;;
10295;SDS011;5193;51.032;6.356;2023-04-01T22:43:56;7.30;;;6.57;;
10295;SDS011;5193;51.032;6.356;2023-04-01T22:53:52;5.43;;;4.70;;
10295;SDS011;5193;51.032;6.356;2023-04-01T22:56:42;4.70;;;4.30;;
10295;SDS011;5193;51.032;6.356;2023-04-01T23:01:59;4.07;;;3.77;;
10295;SDS011;5193;51.032;6.356;2023-04-01T23:04:32;3.63;;;3.17;;
10295;SDS011;5193;51.032;6.356;2023-04-01T23:07:03;3.30;;;3.00;;
10295;SDS011;5193;51.032;6.356;2023-04-01T23:09:41;3.03;;;2.77;;
10295;SDS011;5193;51.032;6.356;2023-04-01T23:12:09;4.23;;;3.83;;
10295;SDS011;5193;51.032;6.356;2023-04-01T23:14:54;4.53;;;4.13;;
10295;SDS011;5193;51.032;6.356;2023-04-01T23:17:25;3.77;;;3.47;;
10295;SDS011;5193;51.032;6.356;2023-04-01T23:20:23;4.00;;;3.60;;
10295;SDS011;5193;51.032;6.356;2023-04-01T23:25:32;4.00;;;3.70;;
10295;SDS011;5193;51.032;6.356;2023-04-01T23:28:32;4.30;;;3.90;;
10295;SDS011;5193;51.032;6.356;2023-04-01T23:33:58;3.80;;;3.40;;
10295;SDS011;5193;51.032;6.356;2023-04-01T23:36:47;3.70;;;3.27;;
10295;SDS011;5193;51.032;6.356;2023-04-01T23:42:06;3.83;;;3.53;;
10295;SDS011;5193;51.032;6.356;2023-04-01T23:44:38;4.80;;;4.30;;
10295;SDS011;5193;51.032;6.356;2023-04-01T23:47:04;4.63;;;4.13;;
10295;SDS011;5193;51.032;6.356;2023-04-01T23:49:36;5.40;;;4.57;;
10295;SDS011;5193;51.032;6.356;2023-04-01T23:52:24;5.93;;;4.90;;
10295;SDS011;5193;51.032;6.356;2023-04-01T23:57:27;4.70;;;3.73;;
